New Orleans, LA (70170)

11:45 AM CDT on September 04, 2015 (GMT -0500)
Warehouse District | | Change Station
CLOSE
Current Station
Personal Weather Station
Location: New Orleans, LA
Elevation: 28 ft
Nearby Weather Stations

Elev 28 ft 29.94 °N, 90.07 °W | Updated 16 seconds ago

Partly Cloudy
Partly Cloudy
86.9 °F
Feels Like 94 °F
N
6.0
Wind Variable Wind from NW
Gusts 7.4 mph

Today
High -- | Low -- °F
--% Chance of Precip.
Yesterday
High -- | Low -- °F
Precip. -- in
6:38 AM 7:19 PM
Waning Gibbous, 58% visible
Pressure 30.00 in
Visibility 10.0 miles
Clouds Scattered Clouds 3000 ft
Heat Index 94 °F
Dew Point 73 °F
Humidity 63%
Rainfall 0.00 in
Snow Depth Not available.
UV 5.0 out of 12
Pollen 7.50 out of 12
Air Quality Not available.
Flu Activity Not available.
METAR KNEW 041553Z 02006KT 10SM SCT030 30/24 A3002 RMK AO2 SLP158 T03000239
Pressure 30.00 in
Visibility 10.0 miles
Clouds Scattered Clouds 3000 ft
Heat Index 94 °F
Dew Point 73 °F
Humidity 63%
Rainfall 0.00 in
Snow Depth Not available.
UV 5.0 out of 12
Pollen 7.50 out of 12
Air Quality Not available.
Flu Activity Not available.
METAR KNEW 041553Z 02006KT 10SM SCT030 30/24 A3002 RMK AO2 SLP158 T03000239

10-Day Weather Forecast

×

Almanac

Astronomy

Sep. 04, 2015 Rise Set
Actual Time
Civil Twilight
Nautical Twilight
Astronomical Twilight
Moon
Length of Visible Light
Length of Day
Tomorrow will be .
, % of the Moon is Illuminated

Today's Extremes

State Highs State Lows

Community

WunderPhotos

Upload Photos

1,852,226 photos uploaded!

WunderBlogs® & News

Nearby

Air Quality

  Air Quality AQ Index Pollutant
Not available.

Snow Depth

Station Depth Elevation

Earthquake Activity

City Distance Mag. Time & Date
Minimum magnitude displayed is 2.5.

Coastal Water Temperatures

Place Temperature

Stations

Nearby Weather Stations

Station Location Temp. Windchill Dew Point Humidity Wind Precip. Elev Updated Type